sensor_id;sensor_type;location;lat;lon;timestamp;temperature;humidity
6865;DHT22;3471;49.678;8.388;2023-08-20T00:00:16;26.20;99.90
6865;DHT22;3471;49.678;8.388;2023-08-20T00:02:43;26.10;99.90
6865;DHT22;3471;49.678;8.388;2023-08-20T00:05:09;26.10;99.90
6865;DHT22;3471;49.678;8.388;2023-08-20T00:07:35;26.10;99.90
6865;DHT22;3471;49.678;8.388;2023-08-20T00:10:02;26.10;99.90
6865;DHT22;3471;49.678;8.388;2023-08-20T00:12:29;26.00;99.90
6865;DHT22;3471;49.678;8.388;2023-08-20T00:15:00;25.90;99.90
6865;DHT22;3471;49.678;8.388;2023-08-20T00:17:33;25.90;99.90
6865;DHT22;3471;49.678;8.388;2023-08-20T00:19:59;25.90;99.90
6865;DHT22;3471;49.678;8.388;2023-08-20T00:22:25;25.80;99.90
6865;DHT22;3471;49.678;8.388;2023-08-20T00:24:53;25.80;99.90
6865;DHT22;3471;49.678;8.388;2023-08-20T00:27:19;25.80;99.90
6865;DHT22;3471;49.678;8.388;2023-08-20T00:29:45;25.70;99.90
6865;DHT22;3471;49.678;8.388;2023-08-20T00:32:10;25.70;99.90
6865;DHT22;3471;49.678;8.388;2023-08-20T00:34:36;25.60;99.90
6865;DHT22;3471;49.678;8.388;2023-08-20T00:37:02;25.60;99.90
6865;DHT22;3471;49.678;8.388;2023-08-20T00:39:28;25.60;99.90
6865;DHT22;3471;49.678;8.388;2023-08-20T00:41:54;25.60;99.90
6865;DHT22;3471;49.678;8.388;2023-08-20T00:44:20;25.50;99.90
6865;DHT22;3471;49.678;8.388;2023-08-20T00:46:45;25.50;99.90
6865;DHT22;3471;49.678;8.388;2023-08-20T00:49:11;25.50;99.90
6865;DHT22;3471;49.678;8.388;2023-08-20T00:51:37;25.40;99.90
6865;DHT22;3471;49.678;8.388;2023-08-20T00:54:03;25.40;99.90
6865;DHT22;3471;49.678;8.388;2023-08-20T00:56:29;25.30;99.90
6865;DHT22;3471;49.678;8.388;2023-08-20T00:58:55;25.20;99.90
6865;DHT22;3471;49.678;8.388;2023-08-20T01:01:24;25.20;99.90
6865;DHT22;3471;49.678;8.388;2023-08-20T01:03:50;25.20;99.90
6865;DHT22;3471;49.678;8.388;2023-08-20T01:06:27;25.20;99.90
6865;DHT22;3471;49.678;8.388;2023-08-20T01:09:09;25.10;99.90
6865;DHT22;3471;49.678;8.388;2023-08-20T01:12:00;25.20;99.90
6865;DHT22;3471;49.678;8.388;2023-08-20T01:14:27;25.10;99.90
6865;DHT22;3471;49.678;8.388;2023-08-20T01:16:53;25.10;99.90
6865;DHT22;3471;49.678;8.388;2023-08-20T01:19:20;25.10;99.90
6865;DHT22;3471;49.678;8.388;2023-08-20T01:27:32;25.10;99.90
6865;DHT22;3471;49.678;8.388;2023-08-20T01:30:06;25.10;99.90
6865;DHT22;3471;49.678;8.388;2023-08-20T01:32:33;25.00;99.90
6865;DHT22;3471;49.678;8.388;2023-08-20T01:34:59;24.90;99.90
6865;DHT22;3471;49.678;8.388;2023-08-20T01:37:24;24.90;99.90
6865;DHT22;3471;49.678;8.388;2023-08-20T01:39:50;24.80;99.90
6865;DHT22;3471;49.678;8.388;2023-08-20T01:42:15;24.70;99.90
6865;DHT22;3471;49.678;8.388;2023-08-20T01:44:41;24.70;99.90
6865;DHT22;3471;49.678;8.388;2023-08-20T01:47:06;24.50;99.90
6865;DHT22;3471;49.678;8.388;2023-08-20T01:49:32;24.50;99.90
6865;DHT22;3471;49.678;8.388;2023-08-20T01:51:57;24.40;99.90
6865;DHT22;3471;49.678;8.388;2023-08-20T01:54:23;24.40;99.90
6865;DHT22;3471;49.678;8.388;2023-08-20T01:56:49;24.30;99.90
6865;DHT22;3471;49.678;8.388;2023-08-20T01:59:14;24.30;99.90
6865;DHT22;3471;49.678;8.388;2023-08-20T02:01:40;24.30;99.90
6865;DHT22;3471;49.678;8.388;2023-08-20T02:04:05;24.20;99.90
6865;DHT22;3471;49.678;8.388;2023-08-20T02:06:31;24.20;99.90
6865;DHT22;3471;49.678;8.388;2023-08-20T02:08:56;24.20;99.90
6865;DHT22;3471;49.678;8.388;2023-08-20T02:11:22;24.20;99.90
6865;DHT22;3471;49.678;8.388;2023-08-20T02:13:47;24.20;99.90
6865;DHT22;3471;49.678;8.388;2023-08-20T02:16:13;24.10;99.90
6865;DHT22;3471;49.678;8.388;2023-08-20T02:18:38;24.10;99.90
6865;DHT22;3471;49.678;8.388;2023-08-20T02:21:04;24.10;99.90
6865;DHT22;3471;49.678;8.388;2023-08-20T02:23:29;24.10;99.90
6865;DHT22;3471;49.678;8.388;2023-08-20T02:25:55;24.00;99.90
6865;DHT22;3471;49.678;8.388;2023-08-20T02:28:21;24.00;99.90
6865;DHT22;3471;49.678;8.388;2023-08-20T02:30:47;24.00;99.90
6865;DHT22;3471;49.678;8.388;2023-08-20T02:33:12;23.90;99.90
6865;DHT22;3471;49.678;8.388;2023-08-20T02:35:39;23.90;99.90
6865;DHT22;3471;49.678;8.388;2023-08-20T02:38:05;23.80;99.90
6865;DHT22;3471;49.678;8.388;2023-08-20T02:40:31;23.80;99.90
6865;DHT22;3471;49.678;8.388;2023-08-20T02:42:57;23.80;99.90
6865;DHT22;3471;49.678;8.388;2023-08-20T02:45:23;23.80;99.90
6865;DHT22;3471;49.678;8.388;2023-08-20T02:47:49;23.70;99.90
6865;DHT22;3471;49.678;8.388;2023-08-20T02:50:14;23.70;99.90
6865;DHT22;3471;49.678;8.388;2023-08-20T02:52:42;23.70;99.90
6865;DHT22;3471;49.678;8.388;2023-08-20T02:55:07;23.70;99.90
6865;DHT22;3471;49.678;8.388;2023-08-20T02:57:33;23.70;99.90
6865;DHT22;3471;49.678;8.388;2023-08-20T02:59:59;23.60;99.90
6865;DHT22;3471;49.678;8.388;2023-08-20T03:02:24;23.60;99.90
6865;DHT22;3471;49.678;8.388;2023-08-20T03:04:50;23.60;99.90
6865;DHT22;3471;49.678;8.388;2023-08-20T03:07:15;23.60;99.90
6865;DHT22;3471;49.678;8.388;2023-08-20T03:09:41;23.60;99.90
6865;DHT22;3471;49.678;8.388;2023-08-20T03:12:07;23.60;99.90
6865;DHT22;3471;49.678;8.388;2023-08-20T03:14:32;23.60;99.90
6865;DHT22;3471;49.678;8.388;2023-08-20T03:16:58;23.60;99.90
6865;DHT22;3471;49.678;8.388;2023-08-20T03:19:23;23.60;99.90
6865;DHT22;3471;49.678;8.388;2023-08-20T03:21:49;23.60;99.90
6865;DHT22;3471;49.678;8.388;2023-08-20T03:24:14;23.60;99.90
6865;DHT22;3471;49.678;8.388;2023-08-20T03:26:40;23.60;99.90
6865;DHT22;3471;49.678;8.388;2023-08-20T03:29:06;23.60;99.90
6865;DHT22;3471;49.678;8.388;2023-08-20T03:31:31;23.60;99.90
6865;DHT22;3471;49.678;8.388;2023-08-20T03:33:57;23.70;99.90
6865;DHT22;3471;49.678;8.388;2023-08-20T03:36:22;23.70;99.90
6865;DHT22;3471;49.678;8.388;2023-08-20T03:38:48;23.70;99.90
6865;DHT22;3471;49.678;8.388;2023-08-20T03:41:14;23.70;99.90
6865;DHT22;3471;49.678;8.388;2023-08-20T03:43:39;23.70;99.90
6865;DHT22;3471;49.678;8.388;2023-08-20T03:46:05;23.70;99.90
6865;DHT22;3471;49.678;8.388;2023-08-20T03:48:30;23.60;99.90
6865;DHT22;3471;49.678;8.388;2023-08-20T03:50:56;23.60;99.90
6865;DHT22;3471;49.678;8.388;2023-08-20T03:53:22;23.60;99.90
6865;DHT22;3471;49.678;8.388;2023-08-20T03:55:50;23.60;99.90
6865;DHT22;3471;49.678;8.388;2023-08-20T03:58:16;23.60;99.90
6865;DHT22;3471;49.678;8.388;2023-08-20T04:00:43;23.50;99.90
6865;DHT22;3471;49.678;8.388;2023-08-20T04:03:09;23.50;99.90
6865;DHT22;3471;49.678;8.388;2023-08-20T04:05:38;23.50;99.90
6865;DHT22;3471;49.678;8.388;2023-08-20T04:08:04;23.50;99.90
6865;DHT22;3471;49.678;8.388;2023-08-20T04:10:30;23.50;99.90
6865;DHT22;3471;49.678;8.388;2023-08-20T04:12:56;23.50;99.90
6865;DHT22;3471;49.678;8.388;2023-08-20T04:15:22;23.50;99.90
6865;DHT22;3471;49.678;8.388;2023-08-20T04:17:48;23.40;99.90
6865;DHT22;3471;49.678;8.388;2023-08-20T04:20:14;23.40;99.90
6865;DHT22;3471;49.678;8.388;2023-08-20T04:22:40;23.40;99.90
6865;DHT22;3471;49.678;8.388;2023-08-20T04:25:06;23.40;99.90
6865;DHT22;3471;49.678;8.388;2023-08-20T04:27:32;23.30;99.90
6865;DHT22;3471;49.678;8.388;2023-08-20T04:29:58;23.30;99.90
6865;DHT22;3471;49.678;8.388;2023-08-20T04:32:23;23.30;99.90
6865;DHT22;3471;49.678;8.388;2023-08-20T04:34:49;23.30;99.90
6865;DHT22;3471;49.678;8.388;2023-08-20T04:37:18;23.20;99.90
6865;DHT22;3471;49.678;8.388;2023-08-20T04:39:44;23.30;99.90
6865;DHT22;3471;49.678;8.388;2023-08-20T04:42:09;23.30;99.90
6865;DHT22;3471;49.678;8.388;2023-08-20T04:44:35;23.30;99.90
6865;DHT22;3471;49.678;8.388;2023-08-20T04:47:00;23.40;99.90
6865;DHT22;3471;49.678;8.388;2023-08-20T04:49:26;23.40;99.90
6865;DHT22;3471;49.678;8.388;2023-08-20T04:51:54;23.40;99.90
6865;DHT22;3471;49.678;8.388;2023-08-20T04:54:19;23.50;99.90
6865;DHT22;3471;49.678;8.388;2023-08-20T04:56:45;23.50;99.90
6865;DHT22;3471;49.678;8.388;2023-08-20T04:59:10;23.60;99.90
6865;DHT22;3471;49.678;8.388;2023-08-20T05:01:38;23.60;99.90
6865;DHT22;3471;49.678;8.388;2023-08-20T05:04:03;23.70;99.90
6865;DHT22;3471;49.678;8.388;2023-08-20T05:06:29;23.70;99.90
6865;DHT22;3471;49.678;8.388;2023-08-20T05:08:55;23.80;99.90
6865;DHT22;3471;49.678;8.388;2023-08-20T05:11:20;23.80;99.90
6865;DHT22;3471;49.678;8.388;2023-08-20T05:13:47;23.90;99.90
6865;DHT22;3471;49.678;8.388;2023-08-20T05:16:13;24.00;99.90
6865;DHT22;3471;49.678;8.388;2023-08-20T05:18:38;24.10;99.90
6865;DHT22;3471;49.678;8.388;2023-08-20T05:21:04;24.10;99.90
6865;DHT22;3471;49.678;8.388;2023-08-20T05:23:29;24.20;99.90
6865;DHT22;3471;49.678;8.388;2023-08-20T05:25:55;24.20;99.90
6865;DHT22;3471;49.678;8.388;2023-08-20T05:28:21;24.30;99.90
6865;DHT22;3471;49.678;8.388;2023-08-20T05:30:56;24.40;99.90
6865;DHT22;3471;49.678;8.388;2023-08-20T05:33:22;24.40;99.90
6865;DHT22;3471;49.678;8.388;2023-08-20T05:35:48;24.50;99.90
6865;DHT22;3471;49.678;8.388;2023-08-20T05:38:14;24.60;99.90
6865;DHT22;3471;49.678;8.388;2023-08-20T05:40:39;24.70;99.90
6865;DHT22;3471;49.678;8.388;2023-08-20T05:43:05;24.70;99.90
6865;DHT22;3471;49.678;8.388;2023-08-20T05:45:30;24.80;99.90
6865;DHT22;3471;49.678;8.388;2023-08-20T05:47:56;24.80;99.90
6865;DHT22;3471;49.678;8.388;2023-08-20T05:50:22;24.90;99.90
6865;DHT22;3471;49.678;8.388;2023-08-20T05:52:48;24.90;99.90
6865;DHT22;3471;49.678;8.388;2023-08-20T05:55:14;24.90;99.90
6865;DHT22;3471;49.678;8.388;2023-08-20T05:57:39;25.00;99.90
6865;DHT22;3471;49.678;8.388;2023-08-20T06:00:06;25.10;99.90
6865;DHT22;3471;49.678;8.388;2023-08-20T06:02:32;25.20;99.90
6865;DHT22;3471;49.678;8.388;2023-08-20T06:04:58;25.20;99.90
6865;DHT22;3471;49.678;8.388;2023-08-20T06:07:23;25.40;99.90
6865;DHT22;3471;49.678;8.388;2023-08-20T06:09:49;25.50;99.90
6865;DHT22;3471;49.678;8.388;2023-08-20T06:12:18;25.60;99.90
6865;DHT22;3471;49.678;8.388;2023-08-20T06:14:44;25.80;99.90
6865;DHT22;3471;49.678;8.388;2023-08-20T06:17:09;25.90;99.90
6865;DHT22;3471;49.678;8.388;2023-08-20T06:19:35;26.00;99.90
6865;DHT22;3471;49.678;8.388;2023-08-20T06:22:01;26.10;99.90
6865;DHT22;3471;49.678;8.388;2023-08-20T06:24:27;26.20;99.90
6865;DHT22;3471;49.678;8.388;2023-08-20T06:26:52;26.30;99.90
6865;DHT22;3471;49.678;8.388;2023-08-20T06:29:18;26.40;99.90
6865;DHT22;3471;49.678;8.388;2023-08-20T06:31:44;26.50;99.90
6865;DHT22;3471;49.678;8.388;2023-08-20T06:34:09;26.60;99.90
6865;DHT22;3471;49.678;8.388;2023-08-20T06:36:35;26.70;99.90
6865;DHT22;3471;49.678;8.388;2023-08-20T06:39:01;26.80;99.90
6865;DHT22;3471;49.678;8.388;2023-08-20T06:41:27;26.90;99.90
6865;DHT22;3471;49.678;8.388;2023-08-20T06:43:52;27.00;99.90
6865;DHT22;3471;49.678;8.388;2023-08-20T06:46:18;27.10;99.90
6865;DHT22;3471;49.678;8.388;2023-08-20T06:48:43;27.10;99.90
6865;DHT22;3471;49.678;8.388;2023-08-20T06:51:19;27.20;99.90
6865;DHT22;3471;49.678;8.388;2023-08-20T06:53:45;27.20;99.90
6865;DHT22;3471;49.678;8.388;2023-08-20T06:56:11;27.10;99.90
6865;DHT22;3471;49.678;8.388;2023-08-20T06:58:39;27.10;99.90
6865;DHT22;3471;49.678;8.388;2023-08-20T07:01:04;27.00;99.90
6865;DHT22;3471;49.678;8.388;2023-08-20T07:03:41;26.90;99.90
6865;DHT22;3471;49.678;8.388;2023-08-20T07:06:07;26.80;99.90
6865;DHT22;3471;49.678;8.388;2023-08-20T07:08:34;26.80;99.90
6865;DHT22;3471;49.678;8.388;2023-08-20T07:11:00;26.90;99.90
6865;DHT22;3471;49.678;8.388;2023-08-20T07:13:26;27.00;99.90
6865;DHT22;3471;49.678;8.388;2023-08-20T07:15:51;27.10;99.90
6865;DHT22;3471;49.678;8.388;2023-08-20T07:18:17;27.20;99.90
6865;DHT22;3471;49.678;8.388;2023-08-20T07:20:43;27.30;99.90
6865;DHT22;3471;49.678;8.388;2023-08-20T07:23:09;27.40;99.90
6865;DHT22;3471;49.678;8.388;2023-08-20T07:25:40;27.40;99.90
6865;DHT22;3471;49.678;8.388;2023-08-20T07:28:06;27.40;99.90
6865;DHT22;3471;49.678;8.388;2023-08-20T07:30:32;27.50;99.90
6865;DHT22;3471;49.678;8.388;2023-08-20T07:32:58;27.60;99.90
6865;DHT22;3471;49.678;8.388;2023-08-20T07:35:24;27.60;99.90
6865;DHT22;3471;49.678;8.388;2023-08-20T07:37:49;27.70;99.90
6865;DHT22;3471;49.678;8.388;2023-08-20T07:40:15;27.80;99.90
6865;DHT22;3471;49.678;8.388;2023-08-20T07:42:41;27.80;99.90
6865;DHT22;3471;49.678;8.388;2023-08-20T07:45:07;27.90;99.90
6865;DHT22;3471;49.678;8.388;2023-08-20T07:47:34;27.90;99.90
6865;DHT22;3471;49.678;8.388;2023-08-20T07:49:59;28.00;99.90
6865;DHT22;3471;49.678;8.388;2023-08-20T07:52:25;28.10;99.90
6865;DHT22;3471;49.678;8.388;2023-08-20T07:54:50;28.20;99.90
6865;DHT22;3471;49.678;8.388;2023-08-20T07:57:16;28.20;99.90
6865;DHT22;3471;49.678;8.388;2023-08-20T07:59:41;28.20;99.90
6865;DHT22;3471;49.678;8.388;2023-08-20T08:02:07;28.30;99.90
6865;DHT22;3471;49.678;8.388;2023-08-20T08:04:34;28.40;99.90
6865;DHT22;3471;49.678;8.388;2023-08-20T08:07:00;28.40;99.90
6865;DHT22;3471;49.678;8.388;2023-08-20T08:09:32;28.50;99.90
6865;DHT22;3471;49.678;8.388;2023-08-20T08:11:58;28.50;99.90
6865;DHT22;3471;49.678;8.388;2023-08-20T08:14:25;28.60;99.90
6865;DHT22;3471;49.678;8.388;2023-08-20T08:16:50;28.60;99.90
6865;DHT22;3471;49.678;8.388;2023-08-20T08:19:17;28.70;99.90
6865;DHT22;3471;49.678;8.388;2023-08-20T08:21:44;28.80;99.90
6865;DHT22;3471;49.678;8.388;2023-08-20T08:24:10;28.80;99.90
6865;DHT22;3471;49.678;8.388;2023-08-20T08:26:35;29.00;99.90
6865;DHT22;3471;49.678;8.388;2023-08-20T08:29:04;29.10;99.90
6865;DHT22;3471;49.678;8.388;2023-08-20T08:31:30;29.20;99.90
6865;DHT22;3471;49.678;8.388;2023-08-20T08:33:55;29.30;99.90
6865;DHT22;3471;49.678;8.388;2023-08-20T08:36:21;29.40;99.90
6865;DHT22;3471;49.678;8.388;2023-08-20T08:38:47;29.40;99.90
6865;DHT22;3471;49.678;8.388;2023-08-20T08:41:13;29.50;99.90
6865;DHT22;3471;49.678;8.388;2023-08-20T08:43:40;29.50;99.90
6865;DHT22;3471;49.678;8.388;2023-08-20T08:46:13;29.60;99.90
6865;DHT22;3471;49.678;8.388;2023-08-20T08:48:45;29.70;99.90
6865;DHT22;3471;49.678;8.388;2023-08-20T08:51:13;29.80;99.90
6865;DHT22;3471;49.678;8.388;2023-08-20T08:53:39;30.00;99.90
6865;DHT22;3471;49.678;8.388;2023-08-20T08:56:04;30.10;99.90
6865;DHT22;3471;49.678;8.388;2023-08-20T08:58:33;30.20;99.90
6865;DHT22;3471;49.678;8.388;2023-08-20T09:00:59;30.30;99.90
6865;DHT22;3471;49.678;8.388;2023-08-20T09:03:24;30.40;99.90
6865;DHT22;3471;49.678;8.388;2023-08-20T09:05:58;30.60;99.90
6865;DHT22;3471;49.678;8.388;2023-08-20T09:08:30;30.70;99.90
6865;DHT22;3471;49.678;8.388;2023-08-20T09:10:57;30.70;99.90
6865;DHT22;3471;49.678;8.388;2023-08-20T09:15:59;30.90;99.90
6865;DHT22;3471;49.678;8.388;2023-08-20T09:18:25;31.00;99.90
6865;DHT22;3471;49.678;8.388;2023-08-20T09:20:50;31.10;99.90
6865;DHT22;3471;49.678;8.388;2023-08-20T09:23:16;31.10;99.90
6865;DHT22;3471;49.678;8.388;2023-08-20T09:25:42;31.10;99.90
6865;DHT22;3471;49.678;8.388;2023-08-20T09:28:08;31.20;99.90
6865;DHT22;3471;49.678;8.388;2023-08-20T09:30:34;31.20;99.90
6865;DHT22;3471;49.678;8.388;2023-08-20T09:33:18;31.30;99.90
6865;DHT22;3471;49.678;8.388;2023-08-20T09:35:50;31.40;99.90
6865;DHT22;3471;49.678;8.388;2023-08-20T09:38:19;31.50;99.90
6865;DHT22;3471;49.678;8.388;2023-08-20T09:40:49;31.50;99.90
6865;DHT22;3471;49.678;8.388;2023-08-20T09:43:16;31.60;99.90
6865;DHT22;3471;49.678;8.388;2023-08-20T09:45:43;31.70;99.90
6865;DHT22;3471;49.678;8.388;2023-08-20T09:48:10;31.80;99.90
6865;DHT22;3471;49.678;8.388;2023-08-20T09:50:36;32.00;99.90
6865;DHT22;3471;49.678;8.388;2023-08-20T09:55:52;32.20;99.90
6865;DHT22;3471;49.678;8.388;2023-08-20T09:58:19;32.30;99.90
6865;DHT22;3471;49.678;8.388;2023-08-20T10:00:51;32.40;99.90
6865;DHT22;3471;49.678;8.388;2023-08-20T10:03:19;32.50;99.90
6865;DHT22;3471;49.678;8.388;2023-08-20T10:05:47;32.60;99.90
6865;DHT22;3471;49.678;8.388;2023-08-20T10:08:14;32.70;99.90
6865;DHT22;3471;49.678;8.388;2023-08-20T10:10:40;32.80;99.90
6865;DHT22;3471;49.678;8.388;2023-08-20T10:13:06;32.80;99.90
6865;DHT22;3471;49.678;8.388;2023-08-20T10:15:32;32.80;99.90
6865;DHT22;3471;49.678;8.388;2023-08-20T10:18:01;32.90;99.90
6865;DHT22;3471;49.678;8.388;2023-08-20T10:20:29;33.00;99.90
6865;DHT22;3471;49.678;8.388;2023-08-20T10:23:00;33.10;99.90
6865;DHT22;3471;49.678;8.388;2023-08-20T10:25:26;33.20;99.90
6865;DHT22;3471;49.678;8.388;2023-08-20T10:27:53;33.20;99.90
6865;DHT22;3471;49.678;8.388;2023-08-20T10:30:24;33.30;99.90
6865;DHT22;3471;49.678;8.388;2023-08-20T10:32:56;33.40;99.90
6865;DHT22;3471;49.678;8.388;2023-08-20T10:35:25;33.50;99.90
6865;DHT22;3471;49.678;8.388;2023-08-20T10:43:32;33.80;99.90
6865;DHT22;3471;49.678;8.388;2023-08-20T10:46:20;33.90;99.90
6865;DHT22;3471;49.678;8.388;2023-08-20T10:48:47;34.00;99.90
6865;DHT22;3471;49.678;8.388;2023-08-20T10:51:31;34.10;99.90
6865;DHT22;3471;49.678;8.388;2023-08-20T10:56:47;34.00;99.90
6865;DHT22;3471;49.678;8.388;2023-08-20T10:59:14;34.10;99.90
6865;DHT22;3471;49.678;8.388;2023-08-20T11:01:47;34.20;99.90
6865;DHT22;3471;49.678;8.388;2023-08-20T11:04:17;34.40;99.90
6865;DHT22;3471;49.678;8.388;2023-08-20T11:06:45;34.60;99.90
6865;DHT22;3471;49.678;8.388;2023-08-20T11:09:11;34.70;99.90
6865;DHT22;3471;49.678;8.388;2023-08-20T11:11:40;34.90;99.90
6865;DHT22;3471;49.678;8.388;2023-08-20T11:14:08;35.00;99.90
6865;DHT22;3471;49.678;8.388;2023-08-20T11:16:37;35.10;99.90
6865;DHT22;3471;49.678;8.388;2023-08-20T11:19:03;35.30;99.90
6865;DHT22;3471;49.678;8.388;2023-08-20T11:21:40;35.50;99.90
6865;DHT22;3471;49.678;8.388;2023-08-20T11:24:07;35.70;99.90
6865;DHT22;3471;49.678;8.388;2023-08-20T11:26:33;35.90;99.90
6865;DHT22;3471;49.678;8.388;2023-08-20T11:29:01;36.00;99.90
6865;DHT22;3471;49.678;8.388;2023-08-20T11:31:26;36.20;99.90
6865;DHT22;3471;49.678;8.388;2023-08-20T11:33:52;36.30;99.90
6865;DHT22;3471;49.678;8.388;2023-08-20T11:36:20;36.40;99.90
6865;DHT22;3471;49.678;8.388;2023-08-20T11:38:55;36.50;99.90
6865;DHT22;3471;49.678;8.388;2023-08-20T11:41:21;36.60;99.90
6865;DHT22;3471;49.678;8.388;2023-08-20T11:43:48;36.80;99.90
6865;DHT22;3471;49.678;8.388;2023-08-20T11:46:14;37.00;99.90
6865;DHT22;3471;49.678;8.388;2023-08-20T11:51:29;37.20;99.90
6865;DHT22;3471;49.678;8.388;2023-08-20T11:53:56;37.30;99.90
6865;DHT22;3471;49.678;8.388;2023-08-20T11:56:22;37.50;99.90
6865;DHT22;3471;49.678;8.388;2023-08-20T11:58:51;37.60;99.90
6865;DHT22;3471;49.678;8.388;2023-08-20T12:01:18;37.70;99.90
6865;DHT22;3471;49.678;8.388;2023-08-20T12:03:44;37.80;99.90
6865;DHT22;3471;49.678;8.388;2023-08-20T12:06:18;37.90;99.90
6865;DHT22;3471;49.678;8.388;2023-08-20T12:08:43;38.00;99.90
6865;DHT22;3471;49.678;8.388;2023-08-20T12:11:09;38.10;99.90
6865;DHT22;3471;49.678;8.388;2023-08-20T12:13:35;38.10;99.90
6865;DHT22;3471;49.678;8.388;2023-08-20T12:16:01;38.20;99.90
6865;DHT22;3471;49.678;8.388;2023-08-20T12:18:26;38.30;99.90
6865;DHT22;3471;49.678;8.388;2023-08-20T12:20:52;38.40;99.90
6865;DHT22;3471;49.678;8.388;2023-08-20T12:23:17;38.40;99.90
6865;DHT22;3471;49.678;8.388;2023-08-20T12:25:43;38.50;99.90
6865;DHT22;3471;49.678;8.388;2023-08-20T12:28:09;38.50;99.90
6865;DHT22;3471;49.678;8.388;2023-08-20T12:30:34;38.70;99.90
6865;DHT22;3471;49.678;8.388;2023-08-20T12:33:00;38.90;99.60
6865;DHT22;3471;49.678;8.388;2023-08-20T12:35:27;39.00;97.90
6865;DHT22;3471;49.678;8.388;2023-08-20T12:37:53;39.20;97.80
6865;DHT22;3471;49.678;8.388;2023-08-20T12:40:18;39.30;96.70
6865;DHT22;3471;49.678;8.388;2023-08-20T12:42:44;39.30;95.20
6865;DHT22;3471;49.678;8.388;2023-08-20T12:45:10;39.40;97.80
6865;DHT22;3471;49.678;8.388;2023-08-20T12:47:36;39.60;96.40
6865;DHT22;3471;49.678;8.388;2023-08-20T12:50:01;39.80;96.80
6865;DHT22;3471;49.678;8.388;2023-08-20T12:52:29;39.90;96.40
6865;DHT22;3471;49.678;8.388;2023-08-20T12:54:55;40.10;94.70
6865;DHT22;3471;49.678;8.388;2023-08-20T12:57:21;40.30;92.80
6865;DHT22;3471;49.678;8.388;2023-08-20T12:59:46;40.70;95.30
6865;DHT22;3471;49.678;8.388;2023-08-20T13:02:12;41.00;97.20
6865;DHT22;3471;49.678;8.388;2023-08-20T13:04:38;41.20;95.70
6865;DHT22;3471;49.678;8.388;2023-08-20T13:07:04;41.50;94.30
6865;DHT22;3471;49.678;8.388;2023-08-20T13:09:30;41.70;92.50
6865;DHT22;3471;49.678;8.388;2023-08-20T13:11:57;42.00;90.30
6865;DHT22;3471;49.678;8.388;2023-08-20T13:14:26;42.20;93.60
6865;DHT22;3471;49.678;8.388;2023-08-20T13:16:52;42.40;90.40
6865;DHT22;3471;49.678;8.388;2023-08-20T13:19:17;42.50;86.50
6865;DHT22;3471;49.678;8.388;2023-08-20T13:21:43;42.70;86.40
6865;DHT22;3471;49.678;8.388;2023-08-20T13:24:08;42.80;90.70
6865;DHT22;3471;49.678;8.388;2023-08-20T13:26:34;42.80;90.90
6865;DHT22;3471;49.678;8.388;2023-08-20T13:29:00;42.80;91.10
6865;DHT22;3471;49.678;8.388;2023-08-20T13:31:25;42.80;92.40
6865;DHT22;3471;49.678;8.388;2023-08-20T13:33:51;42.70;90.80
6865;DHT22;3471;49.678;8.388;2023-08-20T13:36:17;42.50;92.20
6865;DHT22;3471;49.678;8.388;2023-08-20T13:38:42;42.50;85.80
6865;DHT22;3471;49.678;8.388;2023-08-20T13:41:08;42.60;82.70
6865;DHT22;3471;49.678;8.388;2023-08-20T13:43:34;42.70;83.30
6865;DHT22;3471;49.678;8.388;2023-08-20T13:46:00;42.90;85.60
6865;DHT22;3471;49.678;8.388;2023-08-20T13:48:26;43.20;90.80
6865;DHT22;3471;49.678;8.388;2023-08-20T13:50:51;43.40;85.10
6865;DHT22;3471;49.678;8.388;2023-08-20T13:53:17;43.60;87.40
6865;DHT22;3471;49.678;8.388;2023-08-20T13:55:42;43.80;84.00
6865;DHT22;3471;49.678;8.388;2023-08-20T13:58:08;43.90;84.40
6865;DHT22;3471;49.678;8.388;2023-08-20T14:00:33;44.00;80.90
6865;DHT22;3471;49.678;8.388;2023-08-20T14:02:59;44.20;84.70
6865;DHT22;3471;49.678;8.388;2023-08-20T14:05:25;44.30;84.60
6865;DHT22;3471;49.678;8.388;2023-08-20T14:07:50;44.50;82.70
6865;DHT22;3471;49.678;8.388;2023-08-20T14:10:16;44.70;78.60
6865;DHT22;3471;49.678;8.388;2023-08-20T14:12:41;44.90;75.00
6865;DHT22;3471;49.678;8.388;2023-08-20T14:15:09;45.00;78.20
6865;DHT22;3471;49.678;8.388;2023-08-20T14:17:35;45.10;77.10
6865;DHT22;3471;49.678;8.388;2023-08-20T14:20:01;45.10;76.20
6865;DHT22;3471;49.678;8.388;2023-08-20T14:22:26;45.10;73.00
6865;DHT22;3471;49.678;8.388;2023-08-20T14:24:52;45.30;80.80
6865;DHT22;3471;49.678;8.388;2023-08-20T14:27:17;45.50;75.40
6865;DHT22;3471;49.678;8.388;2023-08-20T14:29:43;45.50;77.90
6865;DHT22;3471;49.678;8.388;2023-08-20T14:32:09;45.30;78.00
6865;DHT22;3471;49.678;8.388;2023-08-20T14:34:34;45.00;75.70
6865;DHT22;3471;49.678;8.388;2023-08-20T14:37:00;44.90;77.90
6865;DHT22;3471;49.678;8.388;2023-08-20T14:39:26;44.90;75.40
6865;DHT22;3471;49.678;8.388;2023-08-20T14:41:51;44.90;77.50
6865;DHT22;3471;49.678;8.388;2023-08-20T14:44:17;44.90;78.30
6865;DHT22;3471;49.678;8.388;2023-08-20T14:46:42;44.80;76.80
6865;DHT22;3471;49.678;8.388;2023-08-20T14:49:08;44.40;71.60
6865;DHT22;3471;49.678;8.388;2023-08-20T14:51:34;43.90;76.20
6865;DHT22;3471;49.678;8.388;2023-08-20T14:54:00;43.20;75.30
6865;DHT22;3471;49.678;8.388;2023-08-20T14:56:25;42.50;78.80
6865;DHT22;3471;49.678;8.388;2023-08-20T14:58:51;41.80;77.10
6865;DHT22;3471;49.678;8.388;2023-08-20T15:01:16;41.40;80.40
6865;DHT22;3471;49.678;8.388;2023-08-20T15:03:43;41.10;80.40
6865;DHT22;3471;49.678;8.388;2023-08-20T15:06:10;40.90;86.20
6865;DHT22;3471;49.678;8.388;2023-08-20T15:08:35;40.70;78.20
6865;DHT22;3471;49.678;8.388;2023-08-20T15:11:01;40.70;84.00
6865;DHT22;3471;49.678;8.388;2023-08-20T15:13:33;40.80;88.60
6865;DHT22;3471;49.678;8.388;2023-08-20T15:15:58;41.10;87.60
6865;DHT22;3471;49.678;8.388;2023-08-20T15:18:24;41.50;81.70
6865;DHT22;3471;49.678;8.388;2023-08-20T15:20:57;41.70;86.90
6865;DHT22;3471;49.678;8.388;2023-08-20T15:23:23;41.80;81.70
6865;DHT22;3471;49.678;8.388;2023-08-20T15:25:51;41.60;74.20
6865;DHT22;3471;49.678;8.388;2023-08-20T15:28:19;41.40;79.90
6865;DHT22;3471;49.678;8.388;2023-08-20T15:30:44;41.10;85.50
6865;DHT22;3471;49.678;8.388;2023-08-20T15:33:10;40.80;81.90
6865;DHT22;3471;49.678;8.388;2023-08-20T15:35:35;40.60;86.20
6865;DHT22;3471;49.678;8.388;2023-08-20T15:38:01;40.60;86.90
6865;DHT22;3471;49.678;8.388;2023-08-20T15:40:27;40.80;82.50
6865;DHT22;3471;49.678;8.388;2023-08-20T15:42:53;41.20;84.40
6865;DHT22;3471;49.678;8.388;2023-08-20T15:45:19;41.60;84.10
6865;DHT22;3471;49.678;8.388;2023-08-20T15:47:44;42.00;79.50
6865;DHT22;3471;49.678;8.388;2023-08-20T15:50:10;42.20;80.70
6865;DHT22;3471;49.678;8.388;2023-08-20T15:52:35;42.40;78.90
6865;DHT22;3471;49.678;8.388;2023-08-20T15:55:01;42.50;78.10
6865;DHT22;3471;49.678;8.388;2023-08-20T15:57:27;42.50;80.00
6865;DHT22;3471;49.678;8.388;2023-08-20T15:59:54;42.60;80.10
6865;DHT22;3471;49.678;8.388;2023-08-20T16:02:19;42.50;85.90
6865;DHT22;3471;49.678;8.388;2023-08-20T16:04:45;42.50;80.60
6865;DHT22;3471;49.678;8.388;2023-08-20T16:07:11;42.40;76.20
6865;DHT22;3471;49.678;8.388;2023-08-20T16:09:37;42.40;76.80
6865;DHT22;3471;49.678;8.388;2023-08-20T16:12:04;42.20;75.90
6865;DHT22;3471;49.678;8.388;2023-08-20T16:14:29;42.10;79.60
6865;DHT22;3471;49.678;8.388;2023-08-20T16:16:55;42.00;80.90
6865;DHT22;3471;49.678;8.388;2023-08-20T16:19:20;41.80;78.40